createdAt,value
2022-12-19T00:00:28.733Z,19.26
2022-12-19T00:02:56.506Z,19.27
2022-12-19T00:05:24.813Z,18.88
2022-12-19T00:07:53.959Z,19.12
2022-12-19T00:10:21.795Z,19.25
2022-12-19T00:12:49.588Z,19.22
2022-12-19T00:15:17.898Z,19.33
2022-12-19T00:17:45.645Z,19.31
2022-12-19T00:20:13.534Z,18.78
2022-12-19T00:22:44.648Z,19.23
2022-12-19T00:25:12.394Z,19.24
2022-12-19T00:27:40.802Z,19.17
2022-12-19T00:30:09.320Z,18.85
2022-12-19T00:32:38.307Z,19.12
2022-12-19T00:35:07.402Z,19.18
2022-12-19T00:37:35.327Z,18.78
2022-12-19T00:40:07.751Z,19.34
2022-12-19T00:42:35.598Z,19.33
2022-12-19T00:45:03.764Z,19.33
2022-12-19T00:47:31.596Z,19.32
2022-12-19T00:50:00.693Z,19.17
2022-12-19T00:52:28.394Z,19.18
2022-12-19T00:54:58.223Z,19.31
2022-12-19T00:57:26.188Z,19.05
2022-12-19T00:59:54.469Z,18.93
2022-12-19T01:02:22.694Z,19.19
2022-12-19T01:04:51.042Z,19.09
2022-12-19T01:07:18.733Z,18.78
2022-12-19T01:09:46.443Z,19.34
2022-12-19T01:12:34.028Z,19.39
2022-12-19T01:15:05.288Z,19.31
2022-12-19T01:17:43.729Z,19.05
2022-12-19T01:20:28.937Z,19.42
2022-12-19T01:22:59.949Z,19.41
2022-12-19T01:25:28.603Z,19.42
2022-12-19T01:27:57.238Z,19.19
2022-12-19T01:30:25.549Z,19.38
2022-12-19T01:32:53.835Z,19.22
2022-12-19T01:35:22.332Z,19.18
2022-12-19T01:37:52.142Z,18.62
2022-12-19T01:40:24.485Z,19.12
2022-12-19T01:42:52.295Z,19.26
2022-12-19T01:45:31.992Z,19.32
2022-12-19T01:48:12.861Z,19.34
2022-12-19T01:50:56.030Z,19.34
2022-12-19T01:53:48.337Z,19.27
2022-12-19T01:56:24.213Z,19.22
2022-12-19T01:59:06.157Z,19.36
2022-12-19T02:01:50.949Z,19.13
2022-12-19T02:04:29.402Z,19.10
2022-12-19T02:07:15.192Z,18.97
2022-12-19T02:09:46.941Z,19.32
2022-12-19T02:12:15.178Z,18.95
2022-12-19T02:14:43.641Z,19.07
2022-12-19T02:17:17.018Z,19.29
2022-12-19T02:19:54.771Z,19.29
2022-12-19T02:22:44.322Z,19.32
2022-12-19T02:25:21.664Z,18.82
2022-12-19T02:28:16.620Z,19.31
2022-12-19T02:31:17.717Z,19.31
2022-12-19T02:33:56.654Z,19.29
2022-12-19T02:36:50.563Z,19.28
2022-12-19T02:39:30.524Z,19.12
2022-12-19T02:42:05.907Z,18.98
2022-12-19T02:44:39.937Z,19.27
2022-12-19T02:47:09.031Z,19.19
2022-12-19T02:49:39.028Z,18.81
2022-12-19T02:52:12.604Z,19.26
2022-12-19T02:54:42.329Z,19.29
2022-12-19T02:57:39.775Z,19.29
2022-12-19T03:00:16.304Z,19.31
2022-12-19T03:03:00.848Z,18.98
2022-12-19T03:05:35.770Z,19.21
2022-12-19T03:08:30.915Z,19.22
2022-12-19T03:11:10.509Z,19.30
2022-12-19T03:13:46.377Z,19.29
2022-12-19T03:16:15.059Z,19.15
2022-12-19T03:18:44.300Z,19.24
2022-12-19T03:21:21.504Z,19.31
2022-12-19T03:23:50.943Z,19.26
2022-12-19T03:26:24.999Z,18.91
2022-12-19T03:29:20.120Z,19.23
2022-12-19T03:31:48.164Z,19.18
2022-12-19T03:34:23.983Z,18.98
2022-12-19T03:36:57.424Z,19.10
2022-12-19T03:39:29.401Z,19.09
2022-12-19T03:42:18.212Z,19.16
2022-12-19T03:44:48.530Z,19.02
2022-12-19T03:47:24.408Z,19.19
2022-12-19T03:49:53.052Z,19.14
2022-12-19T03:52:29.731Z,19.16
2022-12-19T03:55:08.088Z,18.91
2022-12-19T03:57:44.261Z,19.13
2022-12-19T04:00:16.263Z,19.21
2022-12-19T04:02:48.082Z,19.21
2022-12-19T04:05:21.093Z,18.90
2022-12-19T04:07:51.701Z,19.16
2022-12-19T04:10:24.937Z,18.68
2022-12-19T04:13:27.699Z,19.08
2022-12-19T04:15:58.373Z,19.20
2022-12-19T04:18:26.564Z,19.20
2022-12-19T04:21:01.705Z,19.21
2022-12-19T04:23:39.583Z,18.85
2022-12-19T04:26:09.758Z,19.00
2022-12-19T04:28:58.872Z,19.13
2022-12-19T04:31:26.969Z,19.09
2022-12-19T04:33:55.090Z,19.03
2022-12-19T04:36:23.092Z,18.86
2022-12-19T04:38:50.748Z,19.16
2022-12-19T04:41:18.545Z,18.99
2022-12-19T04:43:46.342Z,18.77
2022-12-19T04:46:14.284Z,18.59
2022-12-19T04:48:42.090Z,19.06
2022-12-19T04:51:10.026Z,19.07
2022-12-19T04:53:37.851Z,18.74
2022-12-19T04:56:07.176Z,19.10
2022-12-19T04:58:34.935Z,18.91
2022-12-19T05:01:04.830Z,19.08
2022-12-19T05:03:33.423Z,18.73
2022-12-19T05:06:12.526Z,19.04
2022-12-19T05:08:43.148Z,18.79
2022-12-19T05:11:19.203Z,18.85
2022-12-19T05:13:47.849Z,19.09
2022-12-19T05:16:16.166Z,18.65
2022-12-19T05:18:44.453Z,19.13
2022-12-19T05:21:12.944Z,19.13
2022-12-19T05:23:40.781Z,18.62
2022-12-19T05:26:08.646Z,19.11
2022-12-19T05:28:36.699Z,18.86
2022-12-19T05:31:11.891Z,19.10
2022-12-19T05:33:41.975Z,18.86
2022-12-19T05:36:15.877Z,19.09
2022-12-19T05:38:43.837Z,19.16
2022-12-19T05:41:16.230Z,19.02
2022-12-19T05:43:45.970Z,18.92
2022-12-19T05:46:13.816Z,18.89
2022-12-19T05:48:41.852Z,18.69
2022-12-19T05:51:09.856Z,19.12
2022-12-19T05:53:39.220Z,19.11
2022-12-19T05:56:08.783Z,18.94
2022-12-19T05:58:41.077Z,19.10
2022-12-19T06:01:33.803Z,19.08
2022-12-19T06:04:01.674Z,19.09
2022-12-19T06:06:29.532Z,19.03
2022-12-19T06:08:58.600Z,19.13
2022-12-19T06:11:27.842Z,18.94
2022-12-19T06:13:55.616Z,19.17
2022-12-19T06:16:24.316Z,19.20
2022-12-19T06:18:54.534Z,19.20
2022-12-19T06:21:23.990Z,19.22
2022-12-19T06:23:51.932Z,19.16
2022-12-19T06:26:21.218Z,18.76
2022-12-19T06:28:50.562Z,19.07
2022-12-19T06:31:19.442Z,19.32
2022-12-19T06:33:47.106Z,19.02
2022-12-19T06:36:17.190Z,19.40
2022-12-19T06:38:45.143Z,19.39
2022-12-19T06:41:31.879Z,19.15
2022-12-19T06:44:00.959Z,19.01
2022-12-19T06:46:29.221Z,19.34
2022-12-19T06:48:57.287Z,19.23
2022-12-19T06:51:25.026Z,19.45
2022-12-19T06:53:53.856Z,19.50
2022-12-19T06:56:21.743Z,19.58
2022-12-19T06:58:50.497Z,19.59
2022-12-19T07:01:35.795Z,19.54
2022-12-19T07:04:04.116Z,19.32
2022-12-19T07:06:32.043Z,19.54
2022-12-19T07:09:00.317Z,19.40
2022-12-19T07:11:28.067Z,19.35
2022-12-19T07:13:55.730Z,19.28
2022-12-19T07:16:25.949Z,19.23
2022-12-19T07:18:54.139Z,19.47
2022-12-19T07:21:22.726Z,19.57
2022-12-19T07:23:50.868Z,19.56
2022-12-19T07:26:18.784Z,19.41
2022-12-19T07:28:46.594Z,19.26
2022-12-19T07:31:14.702Z,19.52
2022-12-19T07:33:43.731Z,19.49
2022-12-19T07:36:11.603Z,19.34
2022-12-19T07:38:39.259Z,19.03
2022-12-19T07:41:07.085Z,19.39
2022-12-19T07:43:34.947Z,19.29
2022-12-19T07:46:03.162Z,19.41
2022-12-19T07:48:31.559Z,19.14
2022-12-19T07:51:00.312Z,19.35
2022-12-19T07:53:31.521Z,19.35
2022-12-19T07:55:59.459Z,19.32
2022-12-19T07:58:27.086Z,19.46
2022-12-19T08:01:01.564Z,19.43
2022-12-19T08:03:32.949Z,19.16
2022-12-19T08:06:06.403Z,19.26
2022-12-19T08:08:35.513Z,19.54
2022-12-19T08:11:14.949Z,19.31
2022-12-19T08:13:46.396Z,19.38
2022-12-19T08:16:15.256Z,19.57
2022-12-19T08:18:43.177Z,19.69
2022-12-19T08:21:11.738Z,19.48
2022-12-19T08:23:40.121Z,19.52
2022-12-19T08:26:14.576Z,19.81
2022-12-19T08:28:43.767Z,19.96
2022-12-19T08:31:17.465Z,20.05
2022-12-19T08:33:46.470Z,20.06
2022-12-19T08:36:16.559Z,20.13
2022-12-19T08:38:44.571Z,20.10
2022-12-19T08:41:12.768Z,19.86
2022-12-19T08:43:41.151Z,19.96
2022-12-19T08:46:09.538Z,19.83
2022-12-19T08:48:37.392Z,19.78
2022-12-19T08:51:08.065Z,20.05
2022-12-19T08:53:38.523Z,20.15
2022-12-19T08:56:11.673Z,20.16
2022-12-19T08:58:40.091Z,20.15
2022-12-19T09:01:11.520Z,20.12
2022-12-19T09:03:49.634Z,19.84
2022-12-19T09:06:27.903Z,20.14
2022-12-19T09:09:00.467Z,20.02
2022-12-19T09:11:29.097Z,20.04
2022-12-19T09:13:58.148Z,20.34
2022-12-19T09:16:28.240Z,20.15
2022-12-19T09:18:58.791Z,20.35
2022-12-19T09:21:31.687Z,20.31
2022-12-19T09:24:07.407Z,20.23
2022-12-19T09:26:38.948Z,20.20
2022-12-19T09:29:12.628Z,20.23
2022-12-19T09:31:55.533Z,20.36
2022-12-19T09:34:37.197Z,20.21
2022-12-19T09:37:16.375Z,20.29
2022-12-19T09:39:46.966Z,20.08
2022-12-19T09:42:41.128Z,20.56
2022-12-19T09:45:32.174Z,20.67
2022-12-19T09:48:02.141Z,20.62
2022-12-19T09:50:33.399Z,20.63
2022-12-19T09:53:11.770Z,20.60
2022-12-19T09:55:42.009Z,20.34
2022-12-19T09:58:19.861Z,20.05
2022-12-19T10:01:05.119Z,20.48
2022-12-19T10:03:40.339Z,20.58
2022-12-19T10:07:11.419Z,20.53
2022-12-19T10:10:52.904Z,20.37
2022-12-19T10:12:43.779Z,20.57
2022-12-19T10:15:26.151Z,20.59
2022-12-19T10:18:12.960Z,20.58
2022-12-19T10:20:45.868Z,20.54
2022-12-19T10:23:26.219Z,20.53
2022-12-19T10:26:07.821Z,20.53
2022-12-19T10:29:08.505Z,20.49
2022-12-19T10:31:39.122Z,20.47
2022-12-19T10:34:33.287Z,20.49
2022-12-19T10:37:35.086Z,20.45
2022-12-19T10:40:27.281Z,20.34
2022-12-19T10:43:32.888Z,20.30
2022-12-19T10:46:12.285Z,19.82
2022-12-19T10:48:41.815Z,20.07
2022-12-19T10:51:25.325Z,20.28
2022-12-19T10:53:56.722Z,20.23
2022-12-19T10:56:33.158Z,20.11
2022-12-19T10:59:16.336Z,20.26
2022-12-19T11:01:45.030Z,20.13
2022-12-19T11:04:33.848Z,20.33
2022-12-19T11:07:05.330Z,20.31
2022-12-19T11:09:46.076Z,20.25
2022-12-19T11:16:22.137Z,20.14
2022-12-19T11:20:45.545Z,20.24
2022-12-19T11:26:47.081Z,20.16
2022-12-19T11:29:19.608Z,20.14
2022-12-19T11:29:24.898Z,20.16
2022-12-19T11:30:45.727Z,20.16
2022-12-19T11:32:43.599Z,20.19
2022-12-19T11:35:36.584Z,20.16
2022-12-19T11:38:08.521Z,19.80
2022-12-19T11:40:49.850Z,19.95
2022-12-19T11:43:55.594Z,19.75
2022-12-19T11:46:27.255Z,19.93
2022-12-19T11:49:31.445Z,20.02
2022-12-19T11:55:28.370Z,20.12
2022-12-19T11:57:56.208Z,19.98
2022-12-19T12:00:24.971Z,19.97
2022-12-19T12:03:20.727Z,20.21
2022-12-19T12:05:50.152Z,20.04
2022-12-19T12:11:35.023Z,20.20
2022-12-19T12:18:22.127Z,20.03
2022-12-19T12:20:21.893Z,20.22
2022-12-19T12:31:21.495Z,20.25
2022-12-19T12:31:40.036Z,20.25
2022-12-19T12:31:46.191Z,20.21
2022-12-19T12:31:56.046Z,20.23
2022-12-19T12:32:06.316Z,19.91
2022-12-19T12:35:31.530Z,20.29
2022-12-19T12:38:13.772Z,20.35
2022-12-19T12:40:23.867Z,20.12
2022-12-19T12:43:07.201Z,20.30
2022-12-19T12:45:38.237Z,20.31
2022-12-19T12:48:44.448Z,20.34
2022-12-19T12:51:13.298Z,20.33
2022-12-19T12:53:47.031Z,20.21
2022-12-19T12:56:17.860Z,20.38
2022-12-19T12:59:06.091Z,19.73
2022-12-19T13:01:40.534Z,20.38
2022-12-19T13:04:11.549Z,20.39
2022-12-19T13:06:42.112Z,20.40
2022-12-19T13:09:09.793Z,20.39
2022-12-19T13:12:06.200Z,20.16
2022-12-19T13:14:39.843Z,20.45
2022-12-19T13:17:19.728Z,20.42
2022-12-19T13:20:17.903Z,20.46
2022-12-19T13:23:03.882Z,20.50
2022-12-19T13:25:34.905Z,20.52
2022-12-19T13:28:02.773Z,20.54
2022-12-19T13:30:46.226Z,20.49
2022-12-19T13:33:20.269Z,20.56
2022-12-19T13:39:23.021Z,20.59
2022-12-19T13:40:01.585Z,20.58
2022-12-19T13:42:01.287Z,20.62
2022-12-19T13:44:42.364Z,20.70
2022-12-19T13:47:16.607Z,20.71
2022-12-19T13:49:48.457Z,20.72
2022-12-19T13:52:18.196Z,20.64
2022-12-19T13:54:52.100Z,20.57
2022-12-19T13:57:28.782Z,20.72
2022-12-19T14:00:07.340Z,20.70
2022-12-19T14:02:46.933Z,20.77
2022-12-19T14:06:16.875Z,20.78
2022-12-19T14:08:25.726Z,20.69
2022-12-19T14:11:40.147Z,20.77
2022-12-19T14:14:19.093Z,20.77
2022-12-19T14:16:50.670Z,20.75
2022-12-19T14:19:19.858Z,20.76
2022-12-19T14:22:09.946Z,20.68
2022-12-19T14:24:35.128Z,20.76
2022-12-19T14:28:21.385Z,20.05
2022-12-19T14:30:30.926Z,20.71
2022-12-19T14:33:45.355Z,20.38
2022-12-19T14:36:10.648Z,20.72
2022-12-19T14:39:27.356Z,20.73
2022-12-19T14:41:47.954Z,20.75
2022-12-19T14:53:52.111Z,20.60
2022-12-19T14:53:52.111Z,20.70
2022-12-19T14:54:05.507Z,20.69
2022-12-19T14:54:23.893Z,20.53
2022-12-19T14:56:16.162Z,20.59
2022-12-19T14:58:55.710Z,20.63
2022-12-19T15:01:27.197Z,20.24
2022-12-19T15:04:53.319Z,20.57
2022-12-19T15:07:07.542Z,20.63
2022-12-19T15:11:06.714Z,20.59
2022-12-19T15:14:51.841Z,20.60
2022-12-19T15:16:29.643Z,20.50
2022-12-19T15:18:59.184Z,20.58
2022-12-19T15:21:28.175Z,20.42
2022-12-19T15:23:55.905Z,20.57
2022-12-19T15:26:33.696Z,20.57
2022-12-19T15:29:02.662Z,20.43
2022-12-19T15:31:39.396Z,20.39
2022-12-19T15:34:40.164Z,20.54
2022-12-19T15:37:11.435Z,20.33
2022-12-19T15:39:40.883Z,19.99
2022-12-19T15:42:24.999Z,20.52
2022-12-19T15:44:55.943Z,20.19
2022-12-19T15:47:35.419Z,20.52
2022-12-19T15:50:16.833Z,20.51
2022-12-19T15:52:45.031Z,20.46
2022-12-19T15:55:19.158Z,20.52
2022-12-19T15:57:49.796Z,20.50
2022-12-19T16:00:23.849Z,20.33
2022-12-19T16:03:23.238Z,20.42
2022-12-19T16:05:42.482Z,20.27
2022-12-19T16:08:20.079Z,20.33
2022-12-19T16:11:01.046Z,20.22
2022-12-19T16:13:34.720Z,20.38
2022-12-19T16:16:09.266Z,20.53
2022-12-19T16:18:44.731Z,20.37
2022-12-19T16:21:26.059Z,20.62
2022-12-19T16:23:59.253Z,20.54
2022-12-19T16:26:35.981Z,20.57
2022-12-19T16:29:04.460Z,20.29
2022-12-19T16:31:33.013Z,20.34
2022-12-19T16:34:02.656Z,20.55
2022-12-19T16:36:30.487Z,20.23
2022-12-19T16:38:58.201Z,20.56
2022-12-19T16:41:26.212Z,20.55
2022-12-19T16:43:54.070Z,20.56
2022-12-19T16:46:26.333Z,20.32
2022-12-19T16:48:54.195Z,20.58
2022-12-19T16:51:24.825Z,20.46
2022-12-19T16:53:55.057Z,20.45
2022-12-19T16:56:29.973Z,20.57
2022-12-19T16:59:01.362Z,20.33
2022-12-19T17:01:30.239Z,20.42
2022-12-19T17:03:58.097Z,20.41
2022-12-19T17:06:26.843Z,20.28
2022-12-19T17:08:54.764Z,20.51
2022-12-19T17:11:26.241Z,20.43
2022-12-19T17:14:01.705Z,20.48
2022-12-19T17:16:31.295Z,20.35
2022-12-19T17:18:59.749Z,20.42
2022-12-19T17:21:27.573Z,20.40
2022-12-19T17:23:55.496Z,20.43
2022-12-19T17:26:23.258Z,20.34
2022-12-19T17:28:51.054Z,20.18
2022-12-19T17:31:30.301Z,20.18
2022-12-19T17:33:58.674Z,20.39
2022-12-19T17:36:34.662Z,20.42
2022-12-19T17:39:03.175Z,20.21
2022-12-19T17:41:31.316Z,20.40
2022-12-19T17:43:59.149Z,20.10
2022-12-19T17:46:27.136Z,20.02
2022-12-19T17:48:55.261Z,20.42
2022-12-19T17:51:24.630Z,20.40
2022-12-19T17:53:52.435Z,20.03
2022-12-19T17:56:21.039Z,20.48
2022-12-19T17:58:49.589Z,20.30
2022-12-19T18:01:23.251Z,20.51
2022-12-19T18:03:54.345Z,19.97
2022-12-19T18:06:22.684Z,20.39
2022-12-19T18:08:50.564Z,20.52
2022-12-19T18:11:22.282Z,20.54
2022-12-19T18:13:52.208Z,20.52
2022-12-19T18:16:23.711Z,19.96
2022-12-19T18:18:51.545Z,20.24
2022-12-19T18:21:23.385Z,20.45
2022-12-19T18:23:51.514Z,20.42
2022-12-19T18:26:19.354Z,20.40
2022-12-19T18:28:47.052Z,20.15
2022-12-19T18:31:32.993Z,20.43
2022-12-19T18:34:07.409Z,20.43
2022-12-19T18:36:43.456Z,20.41
2022-12-19T18:39:29.290Z,20.04
2022-12-19T18:41:57.138Z,20.33
2022-12-19T18:44:25.275Z,20.56
2022-12-19T18:46:53.672Z,20.25
2022-12-19T18:49:23.516Z,20.44
2022-12-19T18:51:51.386Z,20.59
2022-12-19T18:54:22.006Z,19.74
2022-12-19T18:56:50.159Z,20.22
2022-12-19T18:59:17.954Z,20.35
2022-12-19T19:01:47.403Z,20.28
2022-12-19T19:04:18.272Z,20.44
2022-12-19T19:06:51.458Z,20.46
2022-12-19T19:09:20.665Z,20.35
2022-12-19T19:12:06.267Z,20.31
2022-12-19T19:14:34.133Z,20.32
2022-12-19T19:17:03.473Z,20.47
2022-12-19T19:19:31.725Z,20.45
2022-12-19T19:21:59.496Z,20.38
2022-12-19T19:24:27.272Z,20.14
2022-12-19T19:26:55.144Z,20.48
2022-12-19T19:29:22.996Z,20.42
2022-12-19T19:31:51.902Z,20.53
2022-12-19T19:34:25.699Z,20.50
2022-12-19T19:36:57.408Z,20.56
2022-12-19T19:39:25.324Z,20.35
2022-12-19T19:41:56.490Z,20.40
2022-12-19T19:44:24.275Z,20.53
2022-12-19T19:46:52.534Z,20.53
2022-12-19T19:49:21.217Z,20.52
2022-12-19T19:51:49.715Z,20.24
2022-12-19T19:54:17.839Z,20.24
2022-12-19T19:56:45.473Z,20.36
2022-12-19T19:59:13.716Z,20.07
2022-12-19T20:01:42.787Z,20.33
2022-12-19T20:04:10.793Z,20.30
2022-12-19T20:06:38.729Z,20.36
2022-12-19T20:09:06.703Z,20.44
2022-12-19T20:11:34.820Z,20.44
2022-12-19T20:14:02.615Z,20.43
2022-12-19T20:16:30.798Z,20.51
2022-12-19T20:18:58.705Z,19.96
2022-12-19T20:21:26.732Z,20.23
2022-12-19T20:23:54.681Z,20.45
2022-12-19T20:26:22.693Z,20.40
2022-12-19T20:28:51.474Z,20.58
2022-12-19T20:31:21.247Z,20.57
2022-12-19T20:33:49.894Z,20.25
2022-12-19T20:36:18.606Z,20.50
2022-12-19T20:38:47.306Z,20.56
2022-12-19T20:41:17.477Z,20.56
2022-12-19T20:43:45.569Z,20.34
2022-12-19T20:46:16.842Z,20.58
2022-12-19T20:48:45.460Z,20.60
2022-12-19T20:51:18.022Z,20.57
2022-12-19T20:53:46.871Z,20.72
2022-12-19T20:56:17.577Z,20.56
2022-12-19T20:58:46.011Z,20.70
2022-12-19T21:01:18.149Z,20.53
2022-12-19T21:03:46.871Z,20.42
2022-12-19T21:06:19.272Z,20.50
2022-12-19T21:08:47.615Z,20.54
2022-12-19T21:11:15.999Z,20.57
2022-12-19T21:13:44.220Z,20.58
2022-12-19T21:16:15.697Z,20.48
2022-12-19T21:18:46.157Z,20.48
2022-12-19T21:21:19.000Z,20.50
2022-12-19T21:23:47.347Z,20.33
2022-12-19T21:26:15.528Z,20.26
2022-12-19T21:28:43.652Z,20.31
2022-12-19T21:31:21.245Z,19.86
2022-12-19T21:33:51.363Z,20.42
2022-12-19T21:36:21.895Z,20.21
2022-12-19T21:38:52.068Z,20.43
2022-12-19T21:41:20.395Z,20.41
2022-12-19T21:43:52.550Z,20.25
2022-12-19T21:46:23.901Z,20.44
2022-12-19T21:48:53.589Z,20.37
2022-12-19T21:51:24.031Z,20.30
2022-12-19T21:53:57.142Z,20.41
2022-12-19T21:56:36.404Z,20.40
2022-12-19T21:59:15.612Z,20.38
2022-12-19T22:01:45.327Z,20.30
2022-12-19T22:04:24.496Z,20.35
2022-12-19T22:06:52.381Z,20.12
2022-12-19T22:09:23.269Z,20.16
2022-12-19T22:11:51.425Z,20.35
2022-12-19T22:14:19.389Z,20.21
2022-12-19T22:16:47.261Z,20.29
2022-12-19T22:19:18.587Z,20.19
2022-12-19T22:21:47.534Z,20.36
2022-12-19T22:24:17.192Z,20.38
2022-12-19T22:26:45.277Z,20.31
2022-12-19T22:29:16.291Z,20.39
2022-12-19T22:31:45.402Z,20.43
2022-12-19T22:34:18.848Z,20.32
2022-12-19T22:36:47.746Z,20.45
2022-12-19T22:39:18.766Z,20.45
2022-12-19T22:41:46.796Z,20.15
2022-12-19T22:44:23.418Z,20.45
2022-12-19T22:46:52.712Z,20.38
2022-12-19T22:49:20.691Z,20.20
2022-12-19T22:51:48.568Z,20.29
2022-12-19T22:54:16.353Z,19.97
2022-12-19T22:56:44.303Z,20.19
2022-12-19T22:59:12.821Z,20.38
2022-12-19T23:01:44.580Z,20.05
2022-12-19T23:04:15.264Z,20.33
2022-12-19T23:06:44.255Z,20.34
2022-12-19T23:09:16.319Z,20.39
2022-12-19T23:11:47.452Z,20.39
2022-12-19T23:14:17.169Z,20.40
2022-12-19T23:16:45.537Z,20.32
2022-12-19T23:19:15.406Z,20.39
2022-12-19T23:21:43.319Z,20.06
2022-12-19T23:24:12.615Z,20.38
2022-12-19T23:26:41.400Z,20.31
2022-12-19T23:29:12.227Z,20.34
2022-12-19T23:31:42.655Z,20.27
2022-12-19T23:34:11.039Z,20.32
2022-12-19T23:37:09.730Z,20.05
2022-12-19T23:39:26.657Z,20.11
2022-12-19T23:41:54.329Z,20.26
2022-12-19T23:44:22.120Z,19.93
2022-12-19T23:46:49.889Z,20.27
2022-12-19T23:49:17.631Z,20.00
2022-12-19T23:51:45.539Z,20.24
2022-12-19T23:54:13.414Z,20.21
2022-12-19T23:56:41.214Z,20.07
2022-12-19T23:59:08.947Z,19.94
